Time;durP1;ratioP1;P1;durP2;ratioP2;P2;SDS_P1;SDS_P2;PMS_P1;PMS_P2;Temp;Humidity;BMP_temperature;BMP_pressure;BME280_temperature;BME280_humidity;BME280_pressure;Samples;Min_cycle;Max_cycle;Signal;HPM_P1;HPM_P2
2022/09/03 00:01:08;;;;;;;3.22;1.83;;;;;;;;;;5131388;27;20104;-70
2022/09/03 00:05:22;;;;;;;5.25;2.00;;;;;;;;;;5111058;27;20174;-70
2022/09/03 00:08:04;;;;;;;3.42;1.80;;;;;;;;;;5110726;28;20447;-70
2022/09/03 00:12:19;;;;;;;2.78;1.85;;;;;;;;;;5111972;27;20385;-70
2022/09/03 00:17:19;;;;;;;3.05;1.77;;;;;;;;;;5111311;27;20566;-70
2022/09/03 00:22:30;;;;;;;2.95;1.80;;;;;;;;;;5110996;27;20401;-70
2022/09/03 00:30:43;;;;;;;3.53;1.88;;;;;;;;;;5071206;28;20411;-69
2022/09/03 00:33:39;;;;;;;4.80;2.05;;;;;;;;;;5071341;28;20422;-70
2022/09/03 00:41:40;;;;;;;3.08;1.80;;;;;;;;;;5111203;27;20558;-71
2022/09/03 00:44:09;;;;;;;3.72;2.25;;;;;;;;;;5110903;28;20032;-70
2022/09/03 00:48:26;;;;;;;4.43;2.42;;;;;;;;;;5112005;27;20393;-70
2022/09/03 00:51:01;;;;;;;2.78;1.73;;;;;;;;;;5111034;28;20042;-70
2022/09/03 00:53:34;;;;;;;4.13;2.47;;;;;;;;;;5109774;28;20028;-70
2022/09/03 00:56:07;;;;;;;4.90;2.13;;;;;;;;;;5110841;28;20073;-70
2022/09/03 00:58:36;;;;;;;3.50;2.00;;;;;;;;;;5111248;28;20077;-70
2022/09/03 01:03:42;;;;;;;5.60;2.00;;;;;;;;;;5111343;27;20408;-70
2022/09/03 01:06:27;;;;;;;3.92;1.95;;;;;;;;;;5111250;28;20035;-70
2022/09/03 01:09:02;;;;;;;2.72;1.90;;;;;;;;;;5111678;28;20035;-70
2022/09/03 01:11:28;;;;;;;2.63;1.88;;;;;;;;;;5110654;28;20051;-70
2022/09/03 01:15:40;;;;;;;4.90;2.17;;;;;;;;;;5071248;28;20741;-70
2022/09/03 01:19:03;;;;;;;3.72;2.20;;;;;;;;;;5172908;27;20114;-70
2022/09/03 01:21:33;;;;;;;4.15;2.25;;;;;;;;;;5152648;27;20034;-70
2022/09/03 01:24:20;;;;;;;5.20;2.00;;;;;;;;;;5152340;27;20425;-70
2022/09/03 01:30:05;;;;;;;3.90;2.28;;;;;;;;;;5111997;27;20903;-69
2022/09/03 01:38:51;;;;;;;4.90;2.05;;;;;;;;;;5111116;27;20458;-70
2022/09/03 01:44:11;;;;;;;5.20;2.53;;;;;;;;;;5111116;28;20034;-70
2022/09/03 01:46:44;;;;;;;4.47;2.40;;;;;;;;;;5110641;28;20030;-69
2022/09/03 01:50:50;;;;;;;3.20;2.15;;;;;;;;;;5111330;27;20562;-70
2022/09/03 01:54:06;;;;;;;5.32;2.65;;;;;;;;;;5110997;27;21110;-70
2022/09/03 02:01:36;;;;;;;6.30;3.10;;;;;;;;;;5173364;27;20110;-70
2022/09/03 02:04:13;;;;;;;7.07;3.10;;;;;;;;;;5133930;27;20050;-70
2022/09/03 02:06:39;;;;;;;4.78;2.85;;;;;;;;;;5151912;27;20109;-70
2022/09/03 02:09:05;;;;;;;5.45;2.40;;;;;;;;;;5134664;27;20054;-70
2022/09/03 02:11:32;;;;;;;5.60;2.60;;;;;;;;;;5152217;27;20027;-70
2022/09/03 02:13:59;;;;;;;4.45;2.47;;;;;;;;;;5151681;27;20031;-70
2022/09/03 02:17:58;;;;;;;9.68;2.83;;;;;;;;;;5070759;28;20395;-70
2022/09/03 02:20:27;;;;;;;4.85;2.60;;;;;;;;;;5070204;28;20070;-70
2022/09/03 02:23:23;;;;;;;4.93;3.05;;;;;;;;;;5111453;27;20450;-70
2022/09/03 02:26:45;;;;;;;6.38;3.10;;;;;;;;;;5111217;27;20722;-69
2022/09/03 02:31:10;;;;;;;4.95;2.78;;;;;;;;;;5071270;28;20573;-70
2022/09/03 02:34:58;;;;;;;5.05;3.00;;;;;;;;;;5111183;27;20408;-70
2022/09/03 02:37:25;;;;;;;4.57;2.72;;;;;;;;;;5111337;28;20093;-69
2022/09/03 02:39:51;;;;;;;4.78;2.78;;;;;;;;;;5111104;28;20465;-70
2022/09/03 02:42:18;;;;;;;4.68;2.88;;;;;;;;;;5110739;28;20028;-70
2022/09/03 02:50:09;;;;;;;6.85;3.72;;;;;;;;;;5111180;27;20565;-70
2022/09/03 02:53:01;;;;;;;6.28;3.55;;;;;;;;;;5111544;27;20450;-70
2022/09/03 02:55:28;;;;;;;5.60;3.05;;;;;;;;;;5111323;28;20042;-70
2022/09/03 02:59:23;;;;;;;6.43;2.90;;;;;;;;;;5070694;28;20117;-70
2022/09/03 03:05:44;;;;;;;7.28;3.17;;;;;;;;;;5111145;27;20166;-70
2022/09/03 03:09:05;;;;;;;6.90;3.38;;;;;;;;;;5173745;27;20114;-70
2022/09/03 03:11:32;;;;;;;5.30;3.28;;;;;;;;;;5151839;27;20076;-70
2022/09/03 03:14:54;;;;;;;6.57;3.55;;;;;;;;;;5111215;27;20512;-70
2022/09/03 03:17:36;;;;;;;6.28;3.53;;;;;;;;;;5110984;27;20548;-70
2022/09/03 03:22:12;;;;;;;6.13;3.63;;;;;;;;;;5111545;27;20479;-70
2022/09/03 03:24:39;;;;;;;5.32;3.15;;;;;;;;;;5110736;28;20100;-69
2022/09/03 03:27:32;;;;;;;7.28;3.75;;;;;;;;;;5111943;27;20472;-70
2022/09/03 03:29:58;;;;;;;5.78;3.60;;;;;;;;;;5111101;28;20073;-70
2022/09/03 03:32:24;;;;;;;5.90;3.45;;;;;;;;;;5110601;28;20480;-71
2022/09/03 03:36:03;;;;;;;6.28;3.65;;;;;;;;;;5090879;28;20567;-71
2022/09/03 03:40:21;;;;;;;7.00;4.10;;;;;;;;;;5111782;27;20640;-70
2022/09/03 03:44:05;;;;;;;6.45;3.85;;;;;;;;;;5070924;28;20391;-71
2022/09/03 03:46:33;;;;;;;7.30;4.40;;;;;;;;;;5070106;28;20025;-71
2022/09/03 03:51:19;;;;;;;6.93;4.00;;;;;;;;;;5071123;28;20396;-70
2022/09/03 03:55:39;;;;;;;6.75;3.83;;;;;;;;;;5111681;27;20558;-70
2022/09/03 03:58:05;;;;;;;6.38;3.60;;;;;;;;;;5111185;28;20030;-71
2022/09/03 04:02:38;;;;;;;7.50;3.75;;;;;;;;;;5111488;27;20423;-70
2022/09/03 04:07:18;;;;;;;7.22;3.88;;;;;;;;;;5110992;27;20915;-70
2022/09/03 04:11:40;;;;;;;7.68;4.15;;;;;;;;;;5111163;27;20314;-70
2022/09/03 04:14:37;;;;;;;7.53;3.67;;;;;;;;;;5110825;27;20420;-70
2022/09/03 04:17:04;;;;;;;6.75;3.50;;;;;;;;;;5111049;28;20033;-71
2022/09/03 04:19:30;;;;;;;6.32;3.80;;;;;;;;;;5111010;28;20046;-70
2022/09/03 04:24:26;;;;;;;6.43;3.72;;;;;;;;;;5111945;27;20544;-70
2022/09/03 04:26:53;;;;;;;7.07;4.07;;;;;;;;;;5111075;28;20024;-70
2022/09/03 04:33:34;;;;;;;6.60;3.75;;;;;;;;;;5111830;27;20428;-70
2022/09/03 04:36:33;;;;;;;7.00;3.65;;;;;;;;;;5111968;27;20535;-70
2022/09/03 04:39:03;;;;;;;7.22;3.80;;;;;;;;;;5111158;28;20052;-70
2022/09/03 04:41:30;;;;;;;5.78;3.38;;;;;;;;;;5110586;28;20442;-70
2022/09/03 04:43:57;;;;;;;6.30;3.47;;;;;;;;;;5111037;28;20486;-70
2022/09/03 04:46:25;;;;;;;6.72;4.00;;;;;;;;;;5109660;28;20028;-70
2022/09/03 04:48:52;;;;;;;7.18;3.88;;;;;;;;;;5110616;28;20468;-70
2022/09/03 04:51:56;;;;;;;7.43;3.35;;;;;;;;;;5111882;27;20424;-71
2022/09/03 04:54:22;;;;;;;6.78;4.25;;;;;;;;;;5111111;28;20083;-71
2022/09/03 04:56:48;;;;;;;6.80;3.78;;;;;;;;;;5109277;28;20016;-71
2022/09/03 04:59:14;;;;;;;8.77;3.55;;;;;;;;;;5109715;28;20063;-71
2022/09/03 05:02:51;;;;;;;7.32;4.25;;;;;;;;;;5110841;27;20437;-71
2022/09/03 05:06:55;;;;;;;6.15;3.65;;;;;;;;;;5111891;27;20585;-70
2022/09/03 05:09:21;;;;;;;6.93;3.90;;;;;;;;;;5110780;28;20362;-70
2022/09/03 05:11:47;;;;;;;7.07;3.45;;;;;;;;;;5111052;28;20391;-70
2022/09/03 05:14:13;;;;;;;7.35;3.90;;;;;;;;;;5111020;28;20050;-70
2022/09/03 05:16:40;;;;;;;6.43;3.75;;;;;;;;;;5110510;28;20095;-70
2022/09/03 05:19:06;;;;;;;6.72;3.95;;;;;;;;;;5111204;28;20031;-70
2022/09/03 05:26:08;;;;;;;9.55;5.40;;;;;;;;;;5111517;27;20912;-70
2022/09/03 05:28:35;;;;;;;10.35;5.40;;;;;;;;;;5110993;28;20036;-70
2022/09/03 05:31:09;;;;;;;10.13;5.55;;;;;;;;;;5110710;28;20016;-70
2022/09/03 05:35:36;;;;;;;9.63;5.70;;;;;;;;;;5111310;27;20416;-70
2022/09/03 05:38:02;;;;;;;8.18;4.75;;;;;;;;;;5110652;28;20024;-70
2022/09/03 05:40:30;;;;;;;10.75;5.35;;;;;;;;;;5111137;28;20099;-70
2022/09/03 05:42:57;;;;;;;7.85;4.40;;;;;;;;;;5110969;28;20020;-70
2022/09/03 05:45:23;;;;;;;7.13;4.30;;;;;;;;;;5110492;28;20077;-70
2022/09/03 05:47:50;;;;;;;9.73;5.20;;;;;;;;;;5110986;28;20031;-70
2022/09/03 05:50:16;;;;;;;8.70;5.38;;;;;;;;;;5109450;28;20035;-70
2022/09/03 05:52:42;;;;;;;6.78;4.07;;;;;;;;;;5110363;28;20036;-70
2022/09/03 05:55:08;;;;;;;7.63;4.60;;;;;;;;;;5110887;28;20028;-71
2022/09/03 05:57:44;;;;;;;15.57;7.07;;;;;;;;;;5111606;27;20423;-70
2022/09/03 06:04:17;;;;;;;10.10;4.10;;;;;;;;;;5111769;27;20420;-70
2022/09/03 06:06:44;;;;;;;8.98;4.78;;;;;;;;;;5110568;28;20107;-70
2022/09/03 06:13:04;;;;;;;7.10;4.20;;;;;;;;;;5111238;27;20419;-70
2022/09/03 06:15:30;;;;;;;7.10;4.20;;;;;;;;;;5109726;28;20019;-71
2022/09/03 06:20:41;;;;;;;6.85;3.75;;;;;;;;;;5111066;27;20412;-70
2022/09/03 06:24:07;;;;;;;7.85;3.38;;;;;;;;;;5111863;27;20469;-70
2022/09/03 06:26:33;;;;;;;11.00;5.40;;;;;;;;;;5110658;28;20023;-71
2022/09/03 06:28:59;;;;;;;7.35;3.78;;;;;;;;;;5110991;28;20097;-72
2022/09/03 06:32:04;;;;;;;9.88;4.10;;;;;;;;;;5111618;27;20410;-72
2022/09/03 06:35:14;;;;;;;7.03;3.88;;;;;;;;;;5110989;27;20994;-71
2022/09/03 06:37:41;;;;;;;6.00;3.50;;;;;;;;;;5111271;28;20139;-71
2022/09/03 06:40:11;;;;;;;9.95;4.18;;;;;;;;;;5109684;28;20026;-71
2022/09/03 06:42:37;;;;;;;8.65;3.78;;;;;;;;;;5110645;28;20036;-72
2022/09/03 06:45:05;;;;;;;20.23;6.78;;;;;;;;;;5111280;28;20472;-72
2022/09/03 06:49:15;;;;;;;9.68;4.43;;;;;;;;;;5110943;27;20880;-72
2022/09/03 06:51:42;;;;;;;7.47;4.32;;;;;;;;;;5111092;28;20039;-71
2022/09/03 06:54:39;;;;;;;6.97;3.70;;;;;;;;;;5070079;28;20416;-70
2022/09/03 06:57:05;;;;;;;5.78;3.25;;;;;;;;;;5070517;28;20124;-72
2022/09/03 07:04:04;;;;;;;6.43;2.90;;;;;;;;;;5111219;27;20376;-71
2022/09/03 07:12:36;;;;;;;6.25;3.50;;;;;;;;;;5111167;27;20566;-71
2022/09/03 07:15:02;;;;;;;8.32;4.35;;;;;;;;;;5111302;28;20027;-72
2022/09/03 07:18:27;;;;;;;9.20;4.82;;;;;;;;;;5111124;27;20416;-71
2022/09/03 07:23:03;;;;;;;6.20;3.55;;;;;;;;;;5110685;27;20116;-71
2022/09/03 07:26:38;;;;;;;6.28;3.08;;;;;;;;;;5111413;27;20401;-71
2022/09/03 07:30:31;;;;;;;5.80;3.17;;;;;;;;;;5110883;27;20477;-72
2022/09/03 07:33:01;;;;;;;5.10;2.80;;;;;;;;;;5110983;28;20024;-72
2022/09/03 07:37:29;;;;;;;5.57;3.17;;;;;;;;;;5110805;27;20573;-71
2022/09/03 07:39:55;;;;;;;6.00;3.30;;;;;;;;;;5110989;28;20073;-71
2022/09/03 07:42:21;;;;;;;5.70;3.38;;;;;;;;;;5109680;28;20094;-71
2022/09/03 07:49:35;;;;;;;7.00;3.65;;;;;;;;;;5111823;27;20424;-71
2022/09/03 07:52:01;;;;;;;8.48;3.40;;;;;;;;;;5110644;28;20023;-72
2022/09/03 07:56:17;;;;;;;4.28;2.50;;;;;;;;;;5111613;27;20550;-71
2022/09/03 07:58:44;;;;;;;5.20;2.90;;;;;;;;;;5109272;28;20394;-71
2022/09/03 08:04:01;;;;;;;4.75;2.90;;;;;;;;;;5111763;27;20392;-71
2022/09/03 08:07:39;;;;;;;5.50;2.45;;;;;;;;;;5111829;27;20400;-71
2022/09/03 08:10:05;;;;;;;7.22;3.30;;;;;;;;;;5111118;28;20073;-71
2022/09/03 08:14:06;;;;;;;5.85;2.80;;;;;;;;;;5110789;27;20577;-71
2022/09/03 08:16:34;;;;;;;4.70;2.78;;;;;;;;;;5111055;28;20495;-71
2022/09/03 08:19:49;;;;;;;6.05;2.63;;;;;;;;;;5110776;27;20634;-72
2022/09/03 08:25:01;;;;;;;4.68;2.60;;;;;;;;;;5111776;27;20968;-72
2022/09/03 08:29:40;;;;;;;6.00;2.00;;;;;;;;;;5111515;27;20985;-73
2022/09/03 08:32:06;;;;;;;4.93;2.13;;;;;;;;;;5111189;28;20039;-72
2022/09/03 08:34:32;;;;;;;3.65;2.00;;;;;;;;;;5110675;28;20424;-71
2022/09/03 08:37:00;;;;;;;4.32;2.65;;;;;;;;;;5109796;28;20028;-73
2022/09/03 08:39:27;;;;;;;8.30;4.43;;;;;;;;;;5110927;28;20024;-71
2022/09/03 08:41:53;;;;;;;11.50;7.25;;;;;;;;;;5110637;28;20022;-72
2022/09/03 08:45:29;;;;;;;6.50;3.00;;;;;;;;;;5111482;27;20569;-73
2022/09/03 08:49:07;;;;;;;5.05;2.78;;;;;;;;;;5090589;27;20382;-71
2022/09/03 08:51:58;;;;;;;5.35;2.30;;;;;;;;;;5111258;27;20380;-72
2022/09/03 08:56:02;;;;;;;6.05;2.45;;;;;;;;;;5110997;27;20569;-72
2022/09/03 08:58:30;;;;;;;8.45;2.42;;;;;;;;;;5111540;28;20140;-73
2022/09/03 09:01:35;;;;;;;5.30;2.90;;;;;;;;;;5111509;27;20568;-74
2022/09/03 09:04:08;;;;;;;14.52;6.57;;;;;;;;;;5111206;28;20039;-72
2022/09/03 09:06:46;;;;;;;10.68;3.35;;;;;;;;;;5111348;28;20046;-73
2022/09/03 09:09:12;;;;;;;8.13;3.40;;;;;;;;;;5110918;28;20031;-73
2022/09/03 09:11:45;;;;;;;5.40;2.75;;;;;;;;;;5111113;28;20028;-73
2022/09/03 09:16:18;;;;;;;9.93;2.97;;;;;;;;;;5070730;28;20561;-73
2022/09/03 09:20:02;;;;;;;9.30;4.15;;;;;;;;;;5112009;27;20381;-72
2022/09/03 09:22:34;;;;;;;7.32;2.92;;;;;;;;;;5111058;28;20027;-72
2022/09/03 09:25:04;;;;;;;5.38;2.90;;;;;;;;;;5111170;28;20108;-73
2022/09/03 09:27:32;;;;;;;6.13;2.20;;;;;;;;;;5111072;28;20604;-72
2022/09/03 09:30:00;;;;;;;3.00;1.90;;;;;;;;;;5110643;28;20024;-72
2022/09/03 09:32:26;;;;;;;5.85;2.15;;;;;;;;;;5110968;28;20027;-72
2022/09/03 09:34:53;;;;;;;3.75;2.08;;;;;;;;;;5111321;28;20368;-72
2022/09/03 09:38:06;;;;;;;5.10;2.58;;;;;;;;;;5110849;27;20559;-72
2022/09/03 09:40:33;;;;;;;4.50;2.28;;;;;;;;;;5111120;28;20020;-72
2022/09/03 09:43:14;;;;;;;4.75;2.40;;;;;;;;;;5111956;27;20565;-72
2022/09/03 09:45:41;;;;;;;4.18;1.83;;;;;;;;;;5110754;28;20020;-72
2022/09/03 09:48:15;;;;;;;4.95;2.22;;;;;;;;;;5111049;28;20024;-72
2022/09/03 09:50:41;;;;;;;3.97;2.05;;;;;;;;;;5110859;28;20434;-72
2022/09/03 09:55:18;;;;;;;7.28;3.03;;;;;;;;;;5111932;27;20557;-72
2022/09/03 09:57:44;;;;;;;4.68;2.00;;;;;;;;;;5110872;28;20123;-71
2022/09/03 10:00:12;;;;;;;5.15;2.25;;;;;;;;;;5111066;28;20022;-71
2022/09/03 10:02:49;;;;;;;5.85;2.40;;;;;;;;;;5111349;28;20024;-71
2022/09/03 10:05:26;;;;;;;3.72;2.03;;;;;;;;;;5110696;28;20033;-71
2022/09/03 10:07:55;;;;;;;5.72;2.75;;;;;;;;;;5111189;28;20442;-71
2022/09/03 10:10:24;;;;;;;6.50;2.42;;;;;;;;;;5110861;28;20016;-72
2022/09/03 10:13:02;;;;;;;4.45;2.25;;;;;;;;;;5110331;28;20016;-72
2022/09/03 10:15:47;;;;;;;5.53;2.35;;;;;;;;;;5110793;28;20024;-72
2022/09/03 10:18:27;;;;;;;5.70;2.08;;;;;;;;;;5110810;28;20020;-71
2022/09/03 10:21:12;;;;;;;4.45;2.53;;;;;;;;;;5110332;28;20031;-72
2022/09/03 10:24:01;;;;;;;3.50;1.83;;;;;;;;;;5110694;28;20028;-72
2022/09/03 10:26:31;;;;;;;4.97;2.20;;;;;;;;;;5107147;28;20032;-72
2022/09/03 10:28:59;;;;;;;4.65;2.70;;;;;;;;;;5110883;28;20019;-72
2022/09/03 10:31:25;;;;;;;4.03;2.47;;;;;;;;;;5110816;28;20028;-72
2022/09/03 10:34:00;;;;;;;4.47;1.95;;;;;;;;;;5110056;28;20428;-72
2022/09/03 10:36:45;;;;;;;3.80;2.30;;;;;;;;;;5110587;28;20039;-72
2022/09/03 10:39:37;;;;;;;6.15;3.33;;;;;;;;;;5110458;28;20117;-72
2022/09/03 10:42:05;;;;;;;4.63;2.47;;;;;;;;;;5107062;28;20028;-72
2022/09/03 10:44:46;;;;;;;5.43;2.50;;;;;;;;;;5110386;28;20327;-72
2022/09/03 10:49:07;;;;;;;5.15;2.17;;;;;;;;;;5110928;27;20557;-72
2022/09/03 10:51:41;;;;;;;5.10;1.85;;;;;;;;;;5111390;28;20050;-72
2022/09/03 10:54:10;;;;;;;3.75;1.90;;;;;;;;;;5111073;28;20028;-73
2022/09/03 10:56:39;;;;;;;9.60;3.17;;;;;;;;;;5111098;28;20050;-72
2022/09/03 10:59:26;;;;;;;5.88;2.70;;;;;;;;;;5126889;28;20035;-73
2022/09/03 11:01:52;;;;;;;4.60;2.20;;;;;;;;;;5110565;28;20035;-72
2022/09/03 11:04:18;;;;;;;3.92;1.98;;;;;;;;;;5110971;28;20019;-72
2022/09/03 11:06:51;;;;;;;5.30;2.83;;;;;;;;;;5111065;28;20349;-72
2022/09/03 11:09:18;;;;;;;6.50;3.03;;;;;;;;;;5110620;28;20016;-72
2022/09/03 11:11:47;;;;;;;4.15;2.53;;;;;;;;;;5111025;28;20016;-72
2022/09/03 11:14:15;;;;;;;6.43;1.95;;;;;;;;;;5110615;28;20497;-72
2022/09/03 11:16:54;;;;;;;3.92;2.33;;;;;;;;;;5110339;28;20475;-72
2022/09/03 11:19:24;;;;;;;3.47;2.05;;;;;;;;;;5126490;28;20020;-72
2022/09/03 11:21:50;;;;;;;4.22;2.00;;;;;;;;;;5110171;28;20031;-72
2022/09/03 11:24:19;;;;;;;13.25;4.35;;;;;;;;;;5110615;28;20035;-72
2022/09/03 11:26:47;;;;;;;5.47;2.40;;;;;;;;;;5110443;28;20058;-72
2022/09/03 11:29:24;;;;;;;5.75;2.42;;;;;;;;;;5125809;28;20046;-72
2022/09/03 11:32:16;;;;;;;7.70;2.92;;;;;;;;;;5110863;28;20069;-72
2022/09/03 11:34:47;;;;;;;3.47;2.05;;;;;;;;;;5093697;28;20032;-72
2022/09/03 11:37:19;;;;;;;2.70;1.67;;;;;;;;;;5109968;28;20023;-73
2022/09/03 11:39:45;;;;;;;;;;;;;;;;;;5110774;28;20099;-73
2022/09/03 11:42:21;;;;;;;7.10;2.20;;;;;;;;;;5110096;28;19946;-73
2022/09/03 11:44:50;;;;;;;4.40;2.15;;;;;;;;;;5109857;28;20134;-73
2022/09/03 11:47:19;;;;;;;5.18;2.10;;;;;;;;;;5109864;28;20055;-73
2022/09/03 11:49:50;;;;;;;4.90;1.70;;;;;;;;;;5110042;28;20023;-73
2022/09/03 11:52:31;;;;;;;3.42;1.75;;;;;;;;;;5109642;28;20035;-73
2022/09/03 11:54:57;;;;;;;7.72;4.53;;;;;;;;;;5110097;28;20099;-73
2022/09/03 11:57:30;;;;;;;8.55;4.43;;;;;;;;;;5109841;28;20075;-73
2022/09/03 12:00:14;;;;;;;4.72;2.13;;;;;;;;;;5097505;28;20044;-73
2022/09/03 12:02:45;;;;;;;3.85;2.05;;;;;;;;;;5096482;28;20024;-73
2022/09/03 12:05:14;;;;;;;3.22;1.60;;;;;;;;;;5096051;28;20024;-73
2022/09/03 12:07:40;;;;;;;3.60;1.65;;;;;;;;;;5096174;28;20158;-73
2022/09/03 12:10:12;;;;;;;3.70;2.00;;;;;;;;;;5096185;28;20530;-74
2022/09/03 12:12:57;;;;;;;6.50;1.73;;;;;;;;;;5095881;28;20035;-73
2022/09/03 12:15:41;;;;;;;3.42;1.63;;;;;;;;;;5096044;28;20024;-73
2022/09/03 12:18:18;;;;;;;3.45;1.80;;;;;;;;;;5095644;28;20031;-73
2022/09/03 12:20:46;;;;;;;4.30;2.00;;;;;;;;;;5096100;28;20024;-73
2022/09/03 12:23:14;;;;;;;4.22;1.90;;;;;;;;;;5095969;28;20066;-73
2022/09/03 12:25:46;;;;;;;2.83;1.40;;;;;;;;;;5095495;28;20024;-73
2022/09/03 12:28:16;;;;;;;2.97;1.33;;;;;;;;;;5095879;28;20043;-73
2022/09/03 12:30:42;;;;;;;3.72;2.50;;;;;;;;;;5096183;28;20049;-73
2022/09/03 12:33:12;;;;;;;2.90;1.65;;;;;;;;;;5095599;28;20442;-74
2022/09/03 12:35:38;;;;;;;3.38;1.77;;;;;;;;;;5095563;28;20024;-74
2022/09/03 12:38:04;;;;;;;2.63;1.58;;;;;;;;;;5096133;28;20366;-74
2022/09/03 12:40:30;;;;;;;3.15;1.80;;;;;;;;;;5095208;28;20051;-74
2022/09/03 12:43:11;;;;;;;2.63;1.60;;;;;;;;;;5095426;28;20024;-73
2022/09/03 12:45:43;;;;;;;1.90;1.40;;;;;;;;;;5095881;28;20491;-74
2022/09/03 12:48:16;;;;;;;2.88;1.60;;;;;;;;;;5094938;28;20048;-73
2022/09/03 12:50:43;;;;;;;2.33;1.48;;;;;;;;;;5095688;28;20016;-73
2022/09/03 12:53:11;;;;;;;1.88;1.20;;;;;;;;;;5095591;28;20537;-74
2022/09/03 12:55:46;;;;;;;2.53;1.70;;;;;;;;;;5110903;28;20480;-73
2022/09/03 12:58:16;;;;;;;2.13;1.48;;;;;;;;;;5095136;28;20027;-73
2022/09/03 13:00:55;;;;;;;4.35;2.10;;;;;;;;;;5094751;28;20034;-73
2022/09/03 13:03:24;;;;;;;6.82;2.40;;;;;;;;;;5111137;28;20411;-73
2022/09/03 13:05:58;;;;;;;4.15;2.05;;;;;;;;;;5095112;28;20048;-73
2022/09/03 13:08:29;;;;;;;3.38;1.90;;;;;;;;;;5094537;28;20384;-72
2022/09/03 13:10:57;;;;;;;4.72;1.90;;;;;;;;;;5094061;28;20016;-72
2022/09/03 13:13:25;;;;;;;1.90;1.27;;;;;;;;;;5095024;28;20122;-72
2022/09/03 13:16:15;;;;;;;2.83;1.60;;;;;;;;;;5110193;28;20027;-73
2022/09/03 13:18:49;;;;;;;3.60;1.10;;;;;;;;;;5091645;28;20115;-73
2022/09/03 13:21:18;;;;;;;2.28;0.95;;;;;;;;;;5094947;28;20028;-73
2022/09/03 13:23:52;;;;;;;1.35;0.90;;;;;;;;;;5095042;28;20417;-73
2022/09/03 13:26:27;;;;;;;4.68;1.42;;;;;;;;;;5095068;28;20085;-73
2022/09/03 13:28:54;;;;;;;2.78;1.40;;;;;;;;;;5110104;28;20035;-74
2022/09/03 13:31:20;;;;;;;1.95;1.50;;;;;;;;;;5094644;28;20023;-73
2022/09/03 13:33:53;;;;;;;1.83;1.30;;;;;;;;;;5094609;28;20508;-73
2022/09/03 13:36:28;;;;;;;3.25;1.73;;;;;;;;;;5094309;28;20055;-73
2022/09/03 13:39:04;;;;;;;3.25;1.70;;;;;;;;;;5094493;28;20097;-74
2022/09/03 13:41:35;;;;;;;6.05;2.15;;;;;;;;;;5094709;28;20024;-74
2022/09/03 13:44:06;;;;;;;2.35;1.52;;;;;;;;;;5094051;28;20023;-72
2022/09/03 13:46:41;;;;;;;3.95;2.08;;;;;;;;;;5109863;28;20020;-74
2022/09/03 13:52:30;;;;;;;3.47;1.63;;;;;;;;;;5093068;28;20082;-73
2022/09/03 13:55:02;;;;;;;5.13;2.38;;;;;;;;;;5109804;28;20476;-73
2022/09/03 13:57:28;;;;;;;3.78;2.20;;;;;;;;;;5093619;28;20047;-72
2022/09/03 13:59:55;;;;;;;3.08;1.73;;;;;;;;;;5094060;28;20099;-72
2022/09/03 14:02:21;;;;;;;3.08;1.88;;;;;;;;;;5109745;28;20086;-74
2022/09/03 14:04:53;;;;;;;2.08;1.42;;;;;;;;;;5093785;28;20426;-72
2022/09/03 14:07:38;;;;;;;3.85;1.83;;;;;;;;;;5093845;28;20028;-72
2022/09/03 14:10:13;;;;;;;2.47;1.52;;;;;;;;;;5093800;28;20035;-73
2022/09/03 14:12:52;;;;;;;3.78;1.92;;;;;;;;;;5093327;28;20078;-73
2022/09/03 14:15:28;;;;;;;2.42;1.42;;;;;;;;;;5093807;28;20568;-72
2022/09/03 14:18:12;;;;;;;2.97;1.63;;;;;;;;;;5093670;28;20028;-72
2022/09/03 14:20:56;;;;;;;2.25;1.20;;;;;;;;;;5093647;28;20081;-72
2022/09/03 14:23:28;;;;;;;5.60;1.77;;;;;;;;;;5093422;28;20112;-72
2022/09/03 14:25:55;;;;;;;20.52;4.95;;;;;;;;;;5093339;28;20073;-72
2022/09/03 14:28:35;;;;;;;8.00;2.72;;;;;;;;;;5093613;28;20059;-73
2022/09/03 14:31:04;;;;;;;3.33;1.92;;;;;;;;;;5109308;28;20028;-72
2022/09/03 14:33:53;;;;;;;3.13;1.80;;;;;;;;;;5093200;28;20440;-72
2022/09/03 14:36:25;;;;;;;2.38;1.60;;;;;;;;;;5093945;28;20430;-72
2022/09/03 14:39:21;;;;;;;4.40;2.30;;;;;;;;;;5093140;28;20103;-72
2022/09/03 14:41:53;;;;;;;3.47;2.10;;;;;;;;;;5088508;28;20040;-72
2022/09/03 14:44:19;;;;;;;6.35;2.97;;;;;;;;;;5093685;28;20024;-72
2022/09/03 14:46:57;;;;;;;4.90;2.80;;;;;;;;;;5092807;28;20050;-72
2022/09/03 14:49:41;;;;;;;3.42;2.10;;;;;;;;;;5093296;28;20026;-72
2022/09/03 14:52:15;;;;;;;2.95;1.75;;;;;;;;;;5109192;28;20024;-72
2022/09/03 14:54:45;;;;;;;4.22;2.25;;;;;;;;;;5092849;28;20070;-71
2022/09/03 14:57:20;;;;;;;3.97;2.15;;;;;;;;;;5108915;28;20439;-72
2022/09/03 15:00:07;;;;;;;3.90;2.30;;;;;;;;;;5093456;28;20162;-72
2022/09/03 15:02:33;;;;;;;4.50;2.05;;;;;;;;;;5093359;28;20039;-72
2022/09/03 15:05:03;;;;;;;7.53;3.63;;;;;;;;;;5093269;28;20074;-73
2022/09/03 15:07:36;;;;;;;5.30;2.65;;;;;;;;;;5092748;28;20502;-72
2022/09/03 15:10:20;;;;;;;3.30;2.00;;;;;;;;;;5093124;28;20028;-72
2022/09/03 15:12:51;;;;;;;4.28;1.70;;;;;;;;;;5092987;28;20032;-72
2022/09/03 15:15:20;;;;;;;4.13;2.13;;;;;;;;;;5092791;28;20091;-72
2022/09/03 15:17:52;;;;;;;3.63;1.67;;;;;;;;;;5093185;28;20017;-72
2022/09/03 15:20:30;;;;;;;3.03;1.50;;;;;;;;;;5093616;28;20058;-72
2022/09/03 15:23:11;;;;;;;3.38;1.88;;;;;;;;;;5092644;28;20020;-72
2022/09/03 15:25:56;;;;;;;3.92;1.77;;;;;;;;;;5093248;28;20016;-72
2022/09/03 15:28:22;;;;;;;4.47;2.00;;;;;;;;;;5092528;28;20503;-72
2022/09/03 15:31:02;;;;;;;4.80;2.40;;;;;;;;;;5092954;28;20028;-72
2022/09/03 15:33:34;;;;;;;5.72;2.10;;;;;;;;;;5108926;28;20043;-72
2022/09/03 15:36:19;;;;;;;4.13;2.30;;;;;;;;;;5096433;28;20024;-72
2022/09/03 15:38:52;;;;;;;4.18;2.58;;;;;;;;;;5096835;28;20031;-73
2022/09/03 15:41:32;;;;;;;8.63;2.15;;;;;;;;;;5112495;28;20016;-73
2022/09/03 15:43:59;;;;;;;4.38;2.30;;;;;;;;;;5112156;28;20027;-72
2022/09/03 15:46:31;;;;;;;3.33;2.28;;;;;;;;;;5096385;28;20024;-72
2022/09/03 15:49:03;;;;;;;4.93;2.30;;;;;;;;;;5096799;28;20144;-73
2022/09/03 15:51:28;;;;;;;;;;;;;;;;;;5096859;28;20058;-73
2022/09/03 15:54:07;;;;;;;6.88;2.20;;;;;;;;;;5096445;28;19908;-73
2022/09/03 15:56:44;;;;;;;5.90;2.42;;;;;;;;;;5111768;28;20447;-73
2022/09/03 15:59:25;;;;;;;5.95;2.85;;;;;;;;;;5112207;28;20031;-73
2022/09/03 16:01:54;;;;;;;3.72;2.00;;;;;;;;;;5096362;28;20073;-72
2022/09/03 16:04:20;;;;;;;9.25;3.10;;;;;;;;;;5096176;28;20028;-73
2022/09/03 16:06:46;;;;;;;5.82;2.70;;;;;;;;;;5096145;28;20027;-73
2022/09/03 16:09:19;;;;;;;6.60;2.50;;;;;;;;;;5096255;28;20036;-72
2022/09/03 16:11:55;;;;;;;7.97;2.88;;;;;;;;;;5095820;28;20016;-72
2022/09/03 16:14:29;;;;;;;3.60;2.28;;;;;;;;;;5096534;28;20031;-73
2022/09/03 16:17:01;;;;;;;8.38;2.50;;;;;;;;;;5096171;28;20463;-73
2022/09/03 16:19:42;;;;;;;5.13;2.65;;;;;;;;;;5095621;28;20190;-73
2022/09/03 16:22:27;;;;;;;5.20;2.70;;;;;;;;;;5096436;28;20384;-73
2022/09/03 16:24:58;;;;;;;8.50;2.70;;;;;;;;;;5095735;28;20020;-72
2022/09/03 16:27:35;;;;;;;8.20;2.20;;;;;;;;;;5111542;28;20112;-72
2022/09/03 16:30:10;;;;;;;8.75;2.97;;;;;;;;;;5096090;28;20384;-73
2022/09/03 16:32:39;;;;;;;3.85;2.20;;;;;;;;;;5095456;28;20097;-72
2022/09/03 16:35:11;;;;;;;7.18;3.33;;;;;;;;;;5095743;28;20020;-72
2022/09/03 16:37:50;;;;;;;4.97;2.80;;;;;;;;;;5095523;28;20540;-72
2022/09/03 16:40:33;;;;;;;5.47;3.40;;;;;;;;;;5111009;28;20093;-72
2022/09/03 16:42:59;;;;;;;5.78;3.40;;;;;;;;;;5095533;28;20073;-72
2022/09/03 16:45:32;;;;;;;8.00;3.33;;;;;;;;;;5095369;28;20499;-72
2022/09/03 16:48:17;;;;;;;11.23;3.90;;;;;;;;;;5095249;28;20129;-72
2022/09/03 16:50:56;;;;;;;7.68;4.18;;;;;;;;;;5095464;28;20020;-72
2022/09/03 16:53:41;;;;;;;8.00;3.58;;;;;;;;;;5094921;28;20069;-72
2022/09/03 16:56:10;;;;;;;5.90;3.03;;;;;;;;;;5095412;28;20012;-72
2022/09/03 16:58:48;;;;;;;5.72;3.13;;;;;;;;;;5095239;28;20021;-72
2022/09/03 17:02:17;;;;;;;8.13;5.47;;;;;;;;;;5110783;27;20916;-72
2022/09/03 17:04:46;;;;;;;8.95;4.53;;;;;;;;;;5111241;28;20027;-72
2022/09/03 17:07:19;;;;;;;18.85;4.78;;;;;;;;;;5111032;28;20038;-72
2022/09/03 17:09:45;;;;;;;;;;;;;;;;;;5111656;28;20024;-71
2022/09/03 17:12:30;;;;;;;10.65;6.70;;;;;;;;;;5109801;28;20360;-72
2022/09/03 17:15:12;;;;;;;27.80;16.35;;;;;;;;;;5110747;28;20085;-72
2022/09/03 17:17:57;;;;;;;18.33;12.20;;;;;;;;;;5111076;28;20102;-72
2022/09/03 17:20:41;;;;;;;14.15;8.55;;;;;;;;;;5110868;28;20311;-71
2022/09/03 17:24:37;;;;;;;12.05;6.70;;;;;;;;;;5071409;28;20432;-71
2022/09/03 17:27:07;;;;;;;12.82;6.25;;;;;;;;;;5070887;28;20571;-71
2022/09/03 17:29:51;;;;;;;9.48;5.45;;;;;;;;;;5069095;28;20052;-71
2022/09/03 17:32:19;;;;;;;9.52;4.65;;;;;;;;;;5070527;28;20082;-70
2022/09/03 17:34:56;;;;;;;9.00;4.20;;;;;;;;;;5070115;28;20099;-71
2022/09/03 17:37:32;;;;;;;8.80;3.92;;;;;;;;;;5070619;28;20029;-72
2022/09/03 17:39:58;;;;;;;8.65;4.43;;;;;;;;;;5070427;28;20477;-72
2022/09/03 17:42:48;;;;;;;7.88;3.90;;;;;;;;;;5069994;28;20144;-72
2022/09/03 17:45:14;;;;;;;7.88;4.40;;;;;;;;;;5070119;28;20021;-72
2022/09/03 17:49:33;;;;;;;7.60;3.90;;;;;;;;;;5111140;27;20408;-70
2022/09/03 17:55:14;;;;;;;6.20;3.50;;;;;;;;;;5173483;27;20519;-71
2022/09/03 17:59:14;;;;;;;7.28;4.40;;;;;;;;;;5111314;27;20400;-71
2022/09/03 18:01:48;;;;;;;8.00;4.43;;;;;;;;;;5079819;28;20040;-71
2022/09/03 18:04:38;;;;;;;8.82;5.57;;;;;;;;;;5110871;28;20028;-71